1863 NOT_NAMED (1863032S12059)


IBTrACS version v04r00. Visit IBTrACS website for data access.
Please direct all questions to the IBTrACS Q and A forum

Storm track - Intensity - Wind Radii - Intensity Data - Source Data - All data

Summary Information

Storm ID 1863032S12059
Start Feb 1 06Z
End Feb 9 06Z
ATCF IDs
Track status Best track data.

Storm track plot

Map of storm track

Intensity plots

No Intensity information for this storm


Radial wind information

No radial wind information for this storm


Position and Intensity Table

BASIN ISO_TIME_________ NATURE LAT LON
degrees north degrees east
SI 1863-02-01 06:00:00 NR -12.10 59.30
SI 09:00:00 NR -12.28 59.11
SI 12:00:00 NR -12.45 58.91
SI 15:00:00 NR -12.64 58.72
SI 18:00:00 NR -12.85 58.51
SI 21:00:00 NR -13.07 58.30
SI 1863-02-02 00:00:00 NR -13.32 58.08
SI 03:00:00 NR -13.59 57.85
SI 06:00:00 NR -13.90 57.60
SI 09:00:00 NR -14.24 57.34
SI 12:00:00 NR -14.62 57.06
SI 15:00:00 NR -15.02 56.79
SI 18:00:00 NR -15.43 56.51
SI 21:00:00 NR -15.86 56.23
SI 1863-02-03 00:00:00 NR -16.28 55.97
SI 03:00:00 NR -16.70 55.72
SI 06:00:00 NR -17.10 55.50
SI 09:00:00 NR -17.40 55.28
SI 12:00:00 NR -17.69 55.09
SI 15:00:00 NR -17.97 54.91
SI 18:00:00 NR -18.26 54.76
SI 21:00:00 NR -18.57 54.62
SI 1863-02-04 00:00:00 NR -18.92 54.52
SI 03:00:00 NR -19.33 54.44
SI 06:00:00 NR -19.80 54.40
SI 09:00:00 NR -20.45 54.37
SI 12:00:00 NR -21.17 54.36
SI 15:00:00 NR -21.94 54.39
SI 18:00:00 NR -22.73 54.44
SI 21:00:00 NR -23.52 54.52
SI 1863-02-05 00:00:00 NR -24.28 54.63
SI 03:00:00 NR -24.98 54.75
SI 06:00:00 NR -25.60 54.90
SI 09:00:00 NR -26.07 55.05
SI 12:00:00 NR -26.46 55.22
SI 15:00:00 NR -26.79 55.42
SI 18:00:00 NR -27.07 55.62
SI 21:00:00 NR -27.31 55.84
SI 1863-02-06 00:00:00 NR -27.52 56.06
SI 03:00:00 NR -27.72 56.28
SI 06:00:00 NR -27.90 56.50
SI 09:00:00 NR -28.11 56.65
SI 12:00:00 NR -28.29 56.80
SI 15:00:00 NR -28.47 56.94
SI 18:00:00 NR -28.64 57.09
SI 21:00:00 NR -28.81 57.27
SI 1863-02-07 00:00:00 NR -28.99 57.47
SI 03:00:00 NR -29.18 57.71
SI 06:00:00 NR -29.40 58.00
SI 09:00:00 NR -29.70 58.41
SI 12:00:00 NR -30.02 58.87
SI 15:00:00 NR -30.36 59.38
SI 18:00:00 NR -30.69 59.90
SI 21:00:00 NR -31.01 60.42
SI 1863-02-08 00:00:00 NR -31.31 60.93
SI 03:00:00 NR -31.58 61.39
SI 06:00:00 NR -31.80 61.80
SI 09:00:00 NR -31.97 62.14
SI 12:00:00 NR -32.09 62.40
SI 15:00:00 NR -32.17 62.61
SI 18:00:00 NR -32.22 62.77
SI 21:00:00 NR -32.24 62.89
SI 1863-02-09 00:00:00 NR -32.23 62.97
SI 03:00:00 NR -32.22 63.04
SI 06:00:00 NR -32.20 63.10

Source Information

Agency Information
USA
TOKYO
CMA
HKO
NEWDELHI
REUNION WMO-Best-Tracks.txt:Line=499:xxxx863073
BOM
NADI
WELLINGTON
DS824
TD9636
TD9635
NEUMANN
MLC

All available IBTrACS Data

SEASON BASIN SUBBASIN ISO_TIME_________ NATURE LAT LON WMO AGENCY DIST2LAND LANDFALL IFLAG USA SSHS REUNION LAT REUNION LON REUNION TYPE REUNION TNUM STORM SPEED STORM DIR
Year degrees north degrees east km km 1 degrees north degrees east 1 kts degrees
1863 SI MM 1863-02-01 06:00:00 NR -12.10 59.30 reunion 911 885 _____O________ -1 -12.10 59.30 99 9.90 5 227
1863 SI MM 09:00:00 NR -12.28 59.11 885 871 _____P________ -1 -12.28 59.11 99 5 227
1863 SI MM 12:00:00 NR -12.45 58.91 860 846 _____P________ -1 -12.45 58.91 99 5 226
1863 SI MM 15:00:00 NR -12.64 58.72 846 821 _____P________ -1 -12.64 58.72 99 6 225
1863 SI MM 18:00:00 NR -12.85 58.51 821 785 _____P________ -1 -12.85 58.51 99 6 224
1863 SI MM 21:00:00 NR -13.07 58.30 785 762 _____P________ -1 -13.07 58.30 99 6 222
1863 SI MM 1863-02-02 00:00:00 NR -13.32 58.08 762 727 _____P________ -1 -13.32 58.08 99 7 220
1863 SI MM 03:00:00 NR -13.59 57.85 727 693 _____P________ -1 -13.59 57.85 99 8 219
1863 SI MM 06:00:00 NR -13.90 57.60 reunion 693 660 _____O________ -1 -13.90 57.60 99 9.90 8 217
1863 SI MM 09:00:00 NR -14.24 57.34 660 616 _____P________ -1 -14.24 57.34 99 9 216
1863 SI MM 12:00:00 NR -14.62 57.06 616 575 _____P________ -1 -14.62 57.06 99 9 215
1863 SI MM 15:00:00 NR -15.02 56.79 575 534 _____P________ -1 -15.02 56.79 99 10 213
1863 SI MM 18:00:00 NR -15.43 56.51 536 497 _____P________ -1 -15.43 56.51 99 10 212
1863 SI MM 21:00:00 NR -15.86 56.23 489 453 _____P________ -1 -15.86 56.23 99 10 211
1863 SI MM 1863-02-03 00:00:00 NR -16.28 55.97 453 420 _____P________ -1 -16.28 55.97 99 10 210
1863 SI MM 03:00:00 NR -16.70 55.72 425 396 _____P________ -1 -16.70 55.72 99 9 209
1863 SI MM 06:00:00 NR -17.10 55.50 reunion 396 380 _____O________ -1 -17.10 55.50 99 9.90 8 211
1863 SI MM 09:00:00 NR -17.40 55.28 380 368 _____P________ -1 -17.40 55.28 99 7 214
1863 SI MM 12:00:00 NR -17.69 55.09 368 348 _____P________ -1 -17.69 55.09 99 7 212
1863 SI MM 15:00:00 NR -17.97 54.91 338 317 _____P________ -1 -17.97 54.91 99 7 209
1863 SI MM 18:00:00 NR -18.26 54.76 306 278 _____P________ -1 -18.26 54.76 99 7 204
1863 SI MM 21:00:00 NR -18.57 54.62 278 249 _____P________ -1 -18.57 54.62 99 7 199
1863 SI MM 1863-02-04 00:00:00 NR -18.92 54.52 249 207 _____P________ -1 -18.92 54.52 99 8 193
1863 SI MM 03:00:00 NR -19.33 54.44 212 163 _____P________ -1 -19.33 54.44 99 9 187
1863 SI MM 06:00:00 NR -19.80 54.40 reunion 163 114 _____O________ -1 -19.80 54.40 99 9.90 11 184
1863 SI MM 09:00:00 NR -20.45 54.37 114 82 _____P________ -1 -20.45 54.37 99 14 182
1863 SI MM 12:00:00 NR -21.17 54.36 83 83 _____P________ -1 -21.17 54.36 99 15 0
1863 SI MM 15:00:00 NR -21.94 54.39 114 114 _____P________ -1 -21.94 54.39 99 16 177
1863 SI MM 18:00:00 NR -22.73 54.44 181 181 _____P________ -1 -22.73 54.44 99 16 175
1863 SI MM 21:00:00 NR -23.52 54.52 259 259 _____P________ -1 -23.52 54.52 99 16 174
1863 SI MM 1863-02-05 00:00:00 NR -24.28 54.63 339 339 _____P________ -1 -24.28 54.63 99 15 172
1863 SI MM 03:00:00 NR -24.98 54.75 410 410 _____P________ -1 -24.98 54.75 99 14 169
1863 SI MM 06:00:00 NR -25.60 54.90 reunion 474 474 _____O________ -1 -25.60 54.90 99 9.90 11 166
1863 SI MM 09:00:00 NR -26.07 55.05 527 527 _____P________ -1 -26.07 55.05 99 9 161
1863 SI MM 12:00:00 NR -26.46 55.22 571 570 _____P________ -1 -26.46 55.22 99 8 156
1863 SI MM 15:00:00 NR -26.79 55.42 603 603 _____P________ -1 -26.79 55.42 99 7 150
1863 SI MM 18:00:00 NR -27.07 55.62 636 636 _____P________ -1 -27.07 55.62 99 6 144
1863 SI MM 21:00:00 NR -27.31 55.84 659 659 _____P________ -1 -27.31 55.84 99 6 139
1863 SI MM 1863-02-06 00:00:00 NR -27.52 56.06 683 683 _____P________ -1 -27.52 56.06 99 6 136
1863 SI MM 03:00:00 NR -27.72 56.28 707 707 _____P________ -1 -27.72 56.28 99 5 134
1863 SI MM 06:00:00 NR -27.90 56.50 reunion 731 731 _____O________ -1 -27.90 56.50 99 9.90 5 140
1863 SI MM 09:00:00 NR -28.11 56.65 756 756 _____P________ -1 -28.11 56.65 99 5 146
1863 SI MM 12:00:00 NR -28.29 56.80 780 780 _____P________ -1 -28.29 56.80 99 4 145
1863 SI MM 15:00:00 NR -28.47 56.94 804 804 _____P________ -1 -28.47 56.94 99 4 143
1863 SI MM 18:00:00 NR -28.64 57.09 818 818 _____P________ -1 -28.64 57.09 99 4 140
1863 SI MM 21:00:00 NR -28.81 57.27 844 844 _____P________ -1 -28.81 57.27 99 5 137
1863 SI MM 1863-02-07 00:00:00 NR -28.99 57.47 870 870 _____P________ -1 -28.99 57.47 99 5 134
1863 SI MM 03:00:00 NR -29.18 57.71 896 896 _____P________ -1 -29.18 57.71 99 6 132
1863 SI MM 06:00:00 NR -29.40 58.00 reunion 925 925 _____O________ -1 -29.40 58.00 99 9.90 8 130
1863 SI MM 09:00:00 NR -29.70 58.41 968 968 _____P________ -1 -29.70 58.41 99 10 129
1863 SI MM 12:00:00 NR -30.02 58.87 1015 1015 _____P________ -1 -30.02 58.87 99 11 128
1863 SI MM 15:00:00 NR -30.36 59.38 1074 1074 _____P________ -1 -30.36 59.38 99 11 127
1863 SI MM 18:00:00 NR -30.69 59.90 1123 1123 _____P________ -1 -30.69 59.90 99 11 126
1863 SI MM 21:00:00 NR -31.01 60.42 1173 1173 _____P________ -1 -31.01 60.42 99 11 125
1863 SI MM 1863-02-08 00:00:00 NR -31.31 60.93 1224 1224 _____P________ -1 -31.31 60.93 99 10 124
1863 SI MM 03:00:00 NR -31.58 61.39 1276 1276 _____P________ -1 -31.58 61.39 99 9 123
1863 SI MM 06:00:00 NR -31.80 61.80 reunion 1313 1313 _____O________ -1 -31.80 61.80 99 9.90 7 122
1863 SI MM 09:00:00 NR -31.97 62.14 1347 1347 _____P________ -1 -31.97 62.14 99 6 120
1863 SI MM 12:00:00 NR -32.09 62.40 1371 1371 _____P________ -1 -32.09 62.40 99 4 117
1863 SI MM 15:00:00 NR -32.17 62.61 1390 1390 _____P________ -1 -32.17 62.61 99 3 112
1863 SI MM 18:00:00 NR -32.22 62.77 1400 1400 _____P________ -1 -32.22 62.77 99 2 106
1863 SI MM 21:00:00 NR -32.24 62.89 1405 1405 _____P________ -1 -32.24 62.89 99 2 96
1863 SI MM 1863-02-09 00:00:00 NR -32.23 62.97 1408 1408 _____P________ -1 -32.23 62.97 99 1 84
1863 SI MM 03:00:00 NR -32.22 63.04 1408 1408 _____P________ -1 -32.22 63.04 99 1 72
1863 SI MM 06:00:00 NR -32.20 63.10 reunion 1412 _____O________ -1 -32.20 63.10 99 9.90 1 68